Stations météo

réclame
Mon MeteoGroup
Mont Aigoual, France (7560): Température de l'air & dewpoint: 13.06.2019 12:00:00 - 19.06.2019 12:00:00 (CEST)Mont Aigoual, France (7560): Vitesse du vent & gusts: 13.06.2019 12:00:00 - 19.06.2019 12:00:00 (CEST)Mont Aigoual, France (7560): Direction du vent: 13.06.2019 12:00:00 - 19.06.2019 12:00:00 (CEST)Mont Aigoual, France (7560): visibility: 13.06.2019 12:00:00 - 19.06.2019 12:00:00 (CEST)Mont Aigoual, France (7560): Quantités de précipitations: 13.06.2019 12:00:00 - 19.06.2019 12:00:00 (CEST)
Date & Time tt [°C] td [°C] ff [km/h] ff [knt] fx [km/h] fx [knt] dd vv [km] rr [mm]
19.06.2019 12:00:00 14,1 8,3 24 13 35 19 S 20 0,0
19.06.2019 11:00:00 13,9 8,3 22 12 36 19 S 20 0,0
19.06.2019 10:00:00 13,7 0,3 26 14 34 19 S 20 0,0
19.06.2019 09:00:00 13,1 0,8 25 14 38 20 S 20 0,0
19.06.2019 08:00:00 12,4 0,8 31 17 54 29 S 20 0,0
19.06.2019 07:00:00 12,8 0,2 36 19 49 26 S 20 0,0
19.06.2019 06:00:00 11,7 2,4 41 22 55 30 S 20 0,0
19.06.2019 05:00:00 12,2 2,6 43 23 61 33 S 20 0,0
19.06.2019 04:00:00 11,8 3,0 49 27 60 32 S 20 0,0
19.06.2019 03:00:00 11,7 2,2 43 23 66 36 S 20 0,0
19.06.2019 02:00:00 12,0 1,0 44 24 64 35 S 20 0,0
19.06.2019 01:00:00 12,6 -1,0 50 27 68 37 S 20 0,0
19.06.2019 00:00:00 13,3 -3,9 52 28 70 38 S 20 0,0
18.06.2019 23:00:00 13,2 -3,6 51 28 75 41 S 20 0,0
18.06.2019 22:00:00 13,3 -2,7 52 28 69 37 S 20 0,0
18.06.2019 21:00:00 14,2 -1,9 48 26 65 35 S 20 0,0
18.06.2019 20:00:00 14,8 3,6 44 24 61 33 S 20 0,0
18.06.2019 19:00:00 15,7 5,0 46 25 71 38 S 20 0,0
18.06.2019 18:00:00 17,1 8,2 46 25 76 41 S 20 0,0
18.06.2019 17:00:00 18,1 6,3 42 23 70 38 S 20 0,0
18.06.2019 16:00:00 17,9 5,5 39 21 62 33 S 20 0,0
18.06.2019 15:00:00 17,8 7,8 37 20 60 32 S 20 0,0
18.06.2019 14:00:00 17,6 7,3 36 19 67 36 S 20 0,0
18.06.2019 13:00:00 16,4 5,6 31 17 56 31 S 20 0,0
18.06.2019 12:00:00 15,9 6,3 29 15 44 24 S 20 0,0
18.06.2019 11:00:00 14,8 5,6 27 15 37 20 S 20 0,0
18.06.2019 10:00:00 14,3 0,5 24 13 37 20 S 20 0,0
18.06.2019 09:00:00 14,6 -2,8 27 15 38 20 S 20 0,0
18.06.2019 08:00:00 14,0 -2,9 33 18 41 22 SSE 20 0,0
18.06.2019 07:00:00 14,2 -2,7 32 18 39 21 SSE 20 0,0
18.06.2019 06:00:00 14,3 -7,2 34 18 40 22 S 20 0,0
18.06.2019 05:00:00 14,3 -5,0 35 19 40 22 S 20 0,0
18.06.2019 04:00:00 14,2 -3,6 33 18 37 20 SSE 20 0,0
18.06.2019 03:00:00 14,1 6,7 22 12 31 17 SSE 20 0,0
18.06.2019 02:00:00 14,4 5,7 24 13 30 16 SSE 20 0,0
18.06.2019 01:00:00 14,6 5,7 23 12 27 15 SSE 20 0,0
18.06.2019 00:00:00 15,1 5,9 16 9 21 11 S 20 0,0
17.06.2019 23:00:00 15,5 5,7 11 6 16 9 S 20 0,0
17.06.2019 22:00:00 15,4 6,7 15 8 23 12 SSE 20 0,0
17.06.2019 21:00:00 16,1 8,1 14 7 33 18 S 20 0,0
17.06.2019 20:00:00 17,2 8,3 24 13 40 21 S 20 0,0
17.06.2019 19:00:00 18,6 7,4 22 12 39 21 S 20 0,0
17.06.2019 18:00:00 19,0 5,8 16 9 26 14 S 20 0,0
17.06.2019 17:00:00 19,8 7,5 13 7 33 18 S 20 0,0
17.06.2019 16:00:00 19,1 7,8 19 10 32 18 S 20 0,0
17.06.2019 15:00:00 18,4 8,1 16 9 35 19 S 18 0,0
17.06.2019 14:00:00 17,8 7,8 17 9 32 17 S 20 0,0
17.06.2019 13:00:00 16,6 7,5 16 9 29 15 S 20 0,0
17.06.2019 12:00:00 16,4 8,4 6 4 22 12 S 20 0,0
17.06.2019 11:00:00 15,9 7,1 5 3 16 8 SSE 20 0,0
17.06.2019 10:00:00 15,3 -0,1 8 4 19 10 NE 20 0,0
17.06.2019 09:00:00 14,5 2,4 15 8 31 17 N 20 0,0
17.06.2019 08:00:00 13,5 -1,3 28 15 42 23 NNW 20 0,0
17.06.2019 07:00:00 12,3 -1,3 31 17 44 24 NNW 20 0,0
17.06.2019 06:00:00 11,9 -2,4 32 18 39 21 NW 20 0,0
17.06.2019 05:00:00 11,9 -2,4 27 14 38 20 NNW 20 0,0
17.06.2019 04:00:00 12,8 -2,7 35 19 41 22 NNW 20 0,0
17.06.2019 03:00:00 12,4 -2,7 33 18 40 22 NNW 20 0,0
17.06.2019 02:00:00 12,7 -2,4 24 13 29 15 N 20 0,0
17.06.2019 01:00:00 13,2 -2,3 13 7 16 9 NNW 20 0,0
17.06.2019 00:00:00 12,7 -0,9 16 9 21 11 NNW 20 0,0
16.06.2019 23:00:00 12,4 3,1 16 9 34 18 N 20 0,0
16.06.2019 22:00:00 12,3 3,5 30 16 38 20 N 20 0,0
16.06.2019 21:00:00 13,1 6,0 26 14 32 17 N 20 0,0
16.06.2019 20:00:00 14,6 7,6 24 13 32 17 N 20 0,0
16.06.2019 19:00:00 15,7 8,0 17 9 29 15 N 20 0,0
16.06.2019 18:00:00 15,7 8,4 18 10 31 17 N 20 0,0
16.06.2019 17:00:00 15,9 8,1 22 12 37 20 N 20 0,0
16.06.2019 16:00:00 15,7 6,4 24 13 42 23 N 20 0,0
16.06.2019 15:00:00 15,3 6,3 21 12 35 19 N 20 0,0
16.06.2019 14:00:00 14,5 5,6 21 12 35 19 N 20 0,0
16.06.2019 13:00:00 13,6 6,5 21 11 32 17 N 20 0,0
16.06.2019 12:00:00 12,5 5,6 16 9 31 17 N 20 0,0
16.06.2019 11:00:00 10,7 6,4 18 10 35 19 N 20 0,0
16.06.2019 10:00:00 10,2 6,0 17 9 54 29 N 20 0,0
16.06.2019 09:00:00 8,9 3,1 42 23 60 33 N 20 0,0
16.06.2019 08:00:00 7,0 4,3 50 27 71 38 N 20 0,0
16.06.2019 07:00:00 5,7 4,7 51 27 70 38 N 20 0,0
16.06.2019 06:00:00 4,6 4,6 55 30 74 40 N 0,8 0,0
16.06.2019 05:00:00 4,8 4,7 56 31 74 40 N 6 0,0
16.06.2019 04:00:00 5,3 5,3 55 30 74 40 N 20 0,0
16.06.2019 03:00:00 5,4 5,4 57 31 80 43 N 0,7 0,0
16.06.2019 02:00:00 5,6 5,6 54 29 78 42 NNW 0,2 0,0
16.06.2019 01:00:00 5,9 5,9 51 28 74 40 NNW 0,1 0,0
16.06.2019 00:00:00 6,2 6,2 52 28 80 43 NNW 0,1 0,0
15.06.2019 23:00:00 6,9 6,9 51 27 76 41 NNW 0,1 0,0
15.06.2019 22:00:00 7,3 7,3 56 30 79 42 NNW 0,1 0,0
15.06.2019 21:00:00 7,8 7,8 54 29 69 38 NNW 0,3 0,0
15.06.2019 20:00:00 8,5 8,4 43 23 69 37 NNW 15 0,0
15.06.2019 19:00:00 9,2 8,9 47 25 69 37 NNW 7 0,0
15.06.2019 18:00:00 9,5 9,5 44 24 74 40 NNW 0,3 0,0
15.06.2019 17:00:00 9,4 9,4 46 25 69 37 NNW 20 0,0
15.06.2019 16:00:00 9,0 9,0 38 20 58 31 NW 0,1 0,0
15.06.2019 15:00:00 9,1 9,1 39 21 52 28 WNW - 0,0
15.06.2019 14:00:00 9,5 9,5 33 18 53 28 W 0,1 0,2
15.06.2019 13:00:00 11,0 11,0 27 15 37 20 S - 0,2
15.06.2019 12:00:00 11,0 11,0 23 13 36 19 S - 0,0
15.06.2019 11:00:00 10,6 10,6 19 10 29 16 S - 0,0
15.06.2019 10:00:00 10,9 10,9 13 7 29 16 E 0,1 0,0
15.06.2019 09:00:00 10,5 10,5 16 9 27 14 SE 0,1 0,0
15.06.2019 08:00:00 10,3 10,3 14 8 22 12 ESE 0,2 0,0
15.06.2019 07:00:00 9,8 9,2 12 6 14 8 NNE 13 0,0
15.06.2019 06:00:00 10,3 10,0 6 3 19 10 SSW 0,1 0,2
15.06.2019 05:00:00 10,6 9,4 6 4 16 9 NNW 20 0,0
15.06.2019 04:00:00 10,5 10,5 5 3 15 8 NNW 0,2 0,0
15.06.2019 03:00:00 11,0 11,0 7 4 17 9 SE 0,5 0,0
15.06.2019 02:00:00 11,1 11,1 6 4 16 9 ESE 0,2 0,0
15.06.2019 01:00:00 11,3 11,3 8 4 19 11 ESE 2,1 0,0
15.06.2019 00:00:00 11,0 11,0 9 5 21 11 SSE 6 0,0
14.06.2019 23:00:00 9,3 9,3 6 3 37 20 W 8 0,0
14.06.2019 22:00:00 9,3 9,3 22 12 48 26 W 0,1 2,2
14.06.2019 21:00:00 10,3 10,1 24 13 40 22 WNW 0,1 0,2
14.06.2019 20:00:00 10,8 10,3 29 15 38 21 W 0,1 0,6
14.06.2019 19:00:00 13,2 9,1 20 11 31 17 S 20 0,0
14.06.2019 18:00:00 13,8 8,8 12 7 40 22 S 16 0,0
14.06.2019 17:00:00 14,9 9,3 30 16 61 33 S 20 0,0
14.06.2019 16:00:00 14,1 10,5 30 16 56 30 S 20 0,0
14.06.2019 15:00:00 15,1 9,7 31 17 56 30 SSE 20 0,0
14.06.2019 14:00:00 15,5 10,5 22 12 41 22 SSE 20 0,0
14.06.2019 13:00:00 14,7 7,7 23 12 51 27 ESE 20 0,0
14.06.2019 12:00:00 13,1 10,5 14 8 29 16 N 20 0,0
14.06.2019 11:00:00 12,5 9,7 13 7 36 20 NE 20 6,1
14.06.2019 10:00:00 11,1 9,5 24 13 56 30 ESE 8 1,2
14.06.2019 09:00:00 10,5 7,6 29 16 68 37 SE 19 2,0
14.06.2019 08:00:00 11,4 6,9 51 28 85 46 S 7 0,4
14.06.2019 07:00:00 9,9 1,3 27 15 59 32 S 20 0,0
14.06.2019 06:00:00 9,6 -0,1 23 12 48 26 S 20 0,0
14.06.2019 05:00:00 8,9 -2,7 24 13 43 23 S 20 0,0
14.06.2019 04:00:00 8,4 -7,4 23 13 49 27 S 20 0,0
14.06.2019 03:00:00 8,6 -7,6 30 16 71 38 S 20 0,0
14.06.2019 02:00:00 8,7 -9,8 38 20 76 41 SSE 20 0,0
14.06.2019 01:00:00 9,4 -7,3 48 26 72 39 SSE 20 0,0
14.06.2019 00:00:00 9,8 -4,6 55 30 70 38 S 20 0,0
13.06.2019 23:00:00 9,7 -5,4 57 31 73 39 S 20 0,0
13.06.2019 22:00:00 9,9 -5,3 44 24 57 31 S 20 0,0
13.06.2019 21:00:00 9,7 -2,3 42 23 53 29 S 20 0,0
13.06.2019 20:00:00 10,5 -0,1 43 23 61 33 SSE 20 0,0
13.06.2019 19:00:00 12,5 1,8 39 21 55 30 S 20 0,0
13.06.2019 18:00:00 12,7 0,4 35 19 59 32 S 20 0,0
13.06.2019 17:00:00 13,9 1,5 33 18 61 33 S 20 0,0
13.06.2019 16:00:00 13,6 2,8 41 22 71 38 S 20 0,0
13.06.2019 15:00:00 13,0 2,8 39 21 71 38 S 20 0,0
13.06.2019 14:00:00 12,1 3,1 48 26 76 41 S 20 0,0
13.06.2019 13:00:00 11,4 4,1 38 21 58 32 S 20 0,4
13.06.2019 12:00:00 10,2 2,3 35 19 56 30 S 20 0,0

tt = Température de l'air
td = dewpoint
ff = Vitesse du vent
fx = gusts
dd = Direction du vent
vv = visibility
rr = Quantités de précipitations

stations d'obs. à proximité